sensor_id;sensor_type;location;lat;lon;timestamp;P1;durP1;ratioP1;P2;durP2;ratioP2
14732;SDS011;7457;50.960;6.830;2023-02-28T00:00:26;2.75;;;2.55;;
14732;SDS011;7457;50.960;6.830;2023-02-28T00:02:52;2.90;;;2.60;;
14732;SDS011;7457;50.960;6.830;2023-02-28T00:05:18;2.42;;;2.00;;
14732;SDS011;7457;50.960;6.830;2023-02-28T00:07:45;3.15;;;2.85;;
14732;SDS011;7457;50.960;6.830;2023-02-28T00:10:13;5.53;;;3.55;;
14732;SDS011;7457;50.960;6.830;2023-02-28T00:12:40;4.07;;;2.85;;
14732;SDS011;7457;50.960;6.830;2023-02-28T00:15:08;2.83;;;2.38;;
14732;SDS011;7457;50.960;6.830;2023-02-28T00:17:35;2.90;;;2.70;;
14732;SDS011;7457;50.960;6.830;2023-02-28T00:20:01;3.53;;;2.67;;
14732;SDS011;7457;50.960;6.830;2023-02-28T00:22:37;3.80;;;3.15;;
14732;SDS011;7457;50.960;6.830;2023-02-28T00:25:05;3.42;;;2.90;;
14732;SDS011;7457;50.960;6.830;2023-02-28T00:27:32;3.38;;;2.53;;
14732;SDS011;7457;50.960;6.830;2023-02-28T00:29:57;3.42;;;3.03;;
14732;SDS011;7457;50.960;6.830;2023-02-28T00:32:23;4.22;;;3.00;;
14732;SDS011;7457;50.960;6.830;2023-02-28T00:34:49;3.40;;;2.78;;
14732;SDS011;7457;50.960;6.830;2023-02-28T00:37:14;3.67;;;2.70;;
14732;SDS011;7457;50.960;6.830;2023-02-28T00:39:40;4.32;;;3.28;;
14732;SDS011;7457;50.960;6.830;2023-02-28T00:42:06;4.72;;;3.13;;
14732;SDS011;7457;50.960;6.830;2023-02-28T00:44:32;3.90;;;2.72;;
14732;SDS011;7457;50.960;6.830;2023-02-28T00:46:59;3.47;;;3.13;;
14732;SDS011;7457;50.960;6.830;2023-02-28T00:49:26;4.88;;;2.95;;
14732;SDS011;7457;50.960;6.830;2023-02-28T00:51:52;2.63;;;2.42;;
14732;SDS011;7457;50.960;6.830;2023-02-28T00:54:19;4.25;;;3.25;;
14732;SDS011;7457;50.960;6.830;2023-02-28T00:56:45;3.60;;;3.20;;
14732;SDS011;7457;50.960;6.830;2023-02-28T00:59:11;4.05;;;2.90;;
14732;SDS011;7457;50.960;6.830;2023-02-28T01:01:41;3.50;;;2.88;;
14732;SDS011;7457;50.960;6.830;2023-02-28T01:04:07;2.80;;;2.60;;
14732;SDS011;7457;50.960;6.830;2023-02-28T01:06:33;3.20;;;2.90;;
14732;SDS011;7457;50.960;6.830;2023-02-28T01:08:59;3.85;;;2.97;;
14732;SDS011;7457;50.960;6.830;2023-02-28T01:11:24;2.58;;;2.38;;
14732;SDS011;7457;50.960;6.830;2023-02-28T01:13:50;3.28;;;2.92;;
14732;SDS011;7457;50.960;6.830;2023-02-28T01:16:16;2.92;;;2.67;;
14732;SDS011;7457;50.960;6.830;2023-02-28T01:18:42;5.57;;;3.38;;
14732;SDS011;7457;50.960;6.830;2023-02-28T01:21:08;3.13;;;2.83;;
14732;SDS011;7457;50.960;6.830;2023-02-28T01:23:37;4.85;;;3.30;;
14732;SDS011;7457;50.960;6.830;2023-02-28T01:26:13;1.90;;;1.80;;
14732;SDS011;7457;50.960;6.830;2023-02-28T01:28:46;3.13;;;2.80;;
14732;SDS011;7457;50.960;6.830;2023-02-28T01:31:12;3.28;;;3.08;;
14732;SDS011;7457;50.960;6.830;2023-02-28T01:33:39;4.38;;;2.97;;
14732;SDS011;7457;50.960;6.830;2023-02-28T01:36:06;2.90;;;2.70;;
14732;SDS011;7457;50.960;6.830;2023-02-28T01:38:35;2.33;;;2.17;;
14732;SDS011;7457;50.960;6.830;2023-02-28T01:41:00;3.05;;;2.67;;
14732;SDS011;7457;50.960;6.830;2023-02-28T01:45:53;3.00;;;2.80;;
14732;SDS011;7457;50.960;6.830;2023-02-28T01:48:21;3.50;;;3.17;;
14732;SDS011;7457;50.960;6.830;2023-02-28T01:50:51;3.70;;;2.95;;
14732;SDS011;7457;50.960;6.830;2023-02-28T01:53:19;2.92;;;2.72;;
14732;SDS011;7457;50.960;6.830;2023-02-28T01:55:49;3.90;;;2.45;;
14732;SDS011;7457;50.960;6.830;2023-02-28T01:58:17;2.83;;;2.35;;
14732;SDS011;7457;50.960;6.830;2023-02-28T02:00:43;3.10;;;2.70;;
14732;SDS011;7457;50.960;6.830;2023-02-28T02:03:11;2.88;;;2.67;;
14732;SDS011;7457;50.960;6.830;2023-02-28T02:05:39;6.00;;;3.00;;
14732;SDS011;7457;50.960;6.830;2023-02-28T02:08:10;3.45;;;2.75;;
14732;SDS011;7457;50.960;6.830;2023-02-28T02:18:41;3.13;;;2.45;;
14732;SDS011;7457;50.960;6.830;2023-02-28T02:24:11;4.80;;;3.00;;
14732;SDS011;7457;50.960;6.830;2023-02-28T02:26:58;3.83;;;2.47;;
14732;SDS011;7457;50.960;6.830;2023-02-28T02:29:57;3.13;;;2.80;;
14732;SDS011;7457;50.960;6.830;2023-02-28T02:35:30;3.25;;;2.33;;
14732;SDS011;7457;50.960;6.830;2023-02-28T02:40:43;4.18;;;2.85;;
14732;SDS011;7457;50.960;6.830;2023-02-28T02:46:06;4.15;;;3.03;;
14732;SDS011;7457;50.960;6.830;2023-02-28T02:48:45;3.70;;;3.40;;
14732;SDS011;7457;50.960;6.830;2023-02-28T02:51:15;2.63;;;2.50;;
14732;SDS011;7457;50.960;6.830;2023-02-28T02:53:48;4.55;;;2.80;;
14732;SDS011;7457;50.960;6.830;2023-02-28T02:56:14;2.65;;;2.50;;
14732;SDS011;7457;50.960;6.830;2023-02-28T02:58:43;2.75;;;2.55;;
14732;SDS011;7457;50.960;6.830;2023-02-28T03:01:13;3.03;;;2.67;;
14732;SDS011;7457;50.960;6.830;2023-02-28T03:03:42;4.78;;;3.00;;
14732;SDS011;7457;50.960;6.830;2023-02-28T03:06:09;2.97;;;2.72;;
14732;SDS011;7457;50.960;6.830;2023-02-28T03:08:36;2.92;;;2.72;;
14732;SDS011;7457;50.960;6.830;2023-02-28T03:11:04;3.85;;;3.13;;
14732;SDS011;7457;50.960;6.830;2023-02-28T03:22:14;3.70;;;2.80;;
14732;SDS011;7457;50.960;6.830;2023-02-28T03:27:36;3.08;;;2.78;;
14732;SDS011;7457;50.960;6.830;2023-02-28T03:30:10;3.13;;;2.88;;
14732;SDS011;7457;50.960;6.830;2023-02-28T03:32:52;3.30;;;3.10;;
14732;SDS011;7457;50.960;6.830;2023-02-28T03:35:30;3.72;;;2.63;;
14732;SDS011;7457;50.960;6.830;2023-02-28T03:38:06;3.00;;;2.80;;
14732;SDS011;7457;50.960;6.830;2023-02-28T03:40:39;4.05;;;2.97;;
14732;SDS011;7457;50.960;6.830;2023-02-28T03:43:14;2.97;;;2.70;;
14732;SDS011;7457;50.960;6.830;2023-02-28T03:45:46;3.53;;;2.78;;
14732;SDS011;7457;50.960;6.830;2023-02-28T03:48:16;3.47;;;3.17;;
14732;SDS011;7457;50.960;6.830;2023-02-28T03:51:09;4.85;;;3.58;;
14732;SDS011;7457;50.960;6.830;2023-02-28T03:53:42;4.45;;;3.15;;
14732;SDS011;7457;50.960;6.830;2023-02-28T03:56:16;3.97;;;3.30;;
14732;SDS011;7457;50.960;6.830;2023-02-28T04:01:25;3.70;;;3.40;;
14732;SDS011;7457;50.960;6.830;2023-02-28T04:04:12;3.85;;;3.33;;
14732;SDS011;7457;50.960;6.830;2023-02-28T04:06:39;4.45;;;3.53;;
14732;SDS011;7457;50.960;6.830;2023-02-28T04:09:06;4.18;;;3.25;;
14732;SDS011;7457;50.960;6.830;2023-02-28T04:11:34;3.85;;;3.50;;
14732;SDS011;7457;50.960;6.830;2023-02-28T04:14:07;4.35;;;3.95;;
14732;SDS011;7457;50.960;6.830;2023-02-28T04:16:34;4.90;;;3.08;;
14732;SDS011;7457;50.960;6.830;2023-02-28T04:19:03;5.07;;;3.35;;
14732;SDS011;7457;50.960;6.830;2023-02-28T04:21:31;3.70;;;3.40;;
14732;SDS011;7457;50.960;6.830;2023-02-28T04:23:58;4.13;;;3.75;;
14732;SDS011;7457;50.960;6.830;2023-02-28T04:26:27;4.65;;;3.75;;
14732;SDS011;7457;50.960;6.830;2023-02-28T04:29:03;3.55;;;3.25;;
14732;SDS011;7457;50.960;6.830;2023-02-28T04:31:30;4.80;;;3.67;;
14732;SDS011;7457;50.960;6.830;2023-02-28T04:33:55;4.05;;;3.75;;
14732;SDS011;7457;50.960;6.830;2023-02-28T04:36:21;5.13;;;3.70;;
14732;SDS011;7457;50.960;6.830;2023-02-28T04:38:48;3.97;;;3.15;;
14732;SDS011;7457;50.960;6.830;2023-02-28T04:41:14;4.00;;;3.60;;
14732;SDS011;7457;50.960;6.830;2023-02-28T04:43:40;4.50;;;4.10;;
14732;SDS011;7457;50.960;6.830;2023-02-28T04:46:06;5.05;;;3.97;;
14732;SDS011;7457;50.960;6.830;2023-02-28T04:48:33;4.88;;;3.67;;
14732;SDS011;7457;50.960;6.830;2023-02-28T04:51:04;5.00;;;3.60;;
14732;SDS011;7457;50.960;6.830;2023-02-28T04:53:31;4.82;;;3.80;;
14732;SDS011;7457;50.960;6.830;2023-02-28T04:55:57;3.50;;;3.20;;
14732;SDS011;7457;50.960;6.830;2023-02-28T04:58:23;4.03;;;3.28;;
14732;SDS011;7457;50.960;6.830;2023-02-28T05:00:51;3.65;;;3.35;;
14732;SDS011;7457;50.960;6.830;2023-02-28T05:03:17;3.83;;;3.38;;
14732;SDS011;7457;50.960;6.830;2023-02-28T05:05:43;3.83;;;3.53;;
14732;SDS011;7457;50.960;6.830;2023-02-28T05:08:08;3.00;;;2.28;;
14732;SDS011;7457;50.960;6.830;2023-02-28T05:10:34;4.65;;;3.55;;
14732;SDS011;7457;50.960;6.830;2023-02-28T05:13:00;5.35;;;3.72;;
14732;SDS011;7457;50.960;6.830;2023-02-28T05:15:26;3.33;;;3.13;;
14732;SDS011;7457;50.960;6.830;2023-02-28T05:17:51;6.80;;;3.75;;
14732;SDS011;7457;50.960;6.830;2023-02-28T05:20:17;4.90;;;2.97;;
14732;SDS011;7457;50.960;6.830;2023-02-28T05:22:43;3.15;;;2.78;;
14732;SDS011;7457;50.960;6.830;2023-02-28T05:25:12;3.88;;;3.40;;
14732;SDS011;7457;50.960;6.830;2023-02-28T05:27:42;3.25;;;2.65;;
14732;SDS011;7457;50.960;6.830;2023-02-28T05:30:08;2.83;;;2.67;;
14732;SDS011;7457;50.960;6.830;2023-02-28T05:32:36;3.53;;;3.33;;
14732;SDS011;7457;50.960;6.830;2023-02-28T05:35:02;3.90;;;3.60;;
14732;SDS011;7457;50.960;6.830;2023-02-28T05:37:28;4.35;;;3.92;;
14732;SDS011;7457;50.960;6.830;2023-02-28T05:39:54;3.85;;;3.25;;
14732;SDS011;7457;50.960;6.830;2023-02-28T05:42:19;3.47;;;3.17;;
14732;SDS011;7457;50.960;6.830;2023-02-28T05:44:47;4.00;;;3.63;;
14732;SDS011;7457;50.960;6.830;2023-02-28T05:47:13;4.43;;;3.22;;
14732;SDS011;7457;50.960;6.830;2023-02-28T05:49:40;3.70;;;3.38;;
14732;SDS011;7457;50.960;6.830;2023-02-28T05:52:06;2.63;;;2.42;;
14732;SDS011;7457;50.960;6.830;2023-02-28T05:54:32;3.47;;;3.17;;
14732;SDS011;7457;50.960;6.830;2023-02-28T05:56:58;3.25;;;2.95;;
14732;SDS011;7457;50.960;6.830;2023-02-28T05:59:23;2.17;;;2.08;;
14732;SDS011;7457;50.960;6.830;2023-02-28T06:01:49;4.30;;;2.70;;
14732;SDS011;7457;50.960;6.830;2023-02-28T06:04:16;4.78;;;3.75;;
14732;SDS011;7457;50.960;6.830;2023-02-28T06:06:46;3.50;;;3.20;;
14732;SDS011;7457;50.960;6.830;2023-02-28T06:09:13;3.85;;;3.30;;
14732;SDS011;7457;50.960;6.830;2023-02-28T06:11:40;3.38;;;3.08;;
14732;SDS011;7457;50.960;6.830;2023-02-28T06:14:06;3.15;;;2.95;;
14732;SDS011;7457;50.960;6.830;2023-02-28T06:16:33;3.88;;;3.50;;
14732;SDS011;7457;50.960;6.830;2023-02-28T06:19:00;3.13;;;2.92;;
14732;SDS011;7457;50.960;6.830;2023-02-28T06:21:27;3.42;;;3.13;;
14732;SDS011;7457;50.960;6.830;2023-02-28T06:23:54;5.88;;;3.75;;
14732;SDS011;7457;50.960;6.830;2023-02-28T06:26:20;3.83;;;3.53;;
14732;SDS011;7457;50.960;6.830;2023-02-28T06:28:46;3.35;;;3.05;;
14732;SDS011;7457;50.960;6.830;2023-02-28T06:31:13;3.58;;;3.17;;
14732;SDS011;7457;50.960;6.830;2023-02-28T06:33:40;2.83;;;2.55;;
14732;SDS011;7457;50.960;6.830;2023-02-28T06:36:06;3.33;;;3.03;;
14732;SDS011;7457;50.960;6.830;2023-02-28T06:38:33;3.58;;;3.28;;
14732;SDS011;7457;50.960;6.830;2023-02-28T06:40:59;3.25;;;3.03;;
14732;SDS011;7457;50.960;6.830;2023-02-28T06:43:27;3.80;;;3.50;;
14732;SDS011;7457;50.960;6.830;2023-02-28T06:45:55;3.67;;;2.45;;
14732;SDS011;7457;50.960;6.830;2023-02-28T06:48:23;3.40;;;3.10;;
14732;SDS011;7457;50.960;6.830;2023-02-28T06:50:48;4.80;;;3.30;;
14732;SDS011;7457;50.960;6.830;2023-02-28T06:53:14;3.40;;;3.05;;
14732;SDS011;7457;50.960;6.830;2023-02-28T06:55:40;3.30;;;3.00;;
14732;SDS011;7457;50.960;6.830;2023-02-28T06:58:06;4.82;;;4.03;;
14732;SDS011;7457;50.960;6.830;2023-02-28T07:00:44;3.67;;;3.42;;
14732;SDS011;7457;50.960;6.830;2023-02-28T07:03:10;3.55;;;3.25;;
14732;SDS011;7457;50.960;6.830;2023-02-28T07:05:38;3.08;;;2.83;;
14732;SDS011;7457;50.960;6.830;2023-02-28T07:08:06;3.13;;;2.83;;
14732;SDS011;7457;50.960;6.830;2023-02-28T07:10:36;2.90;;;2.70;;
14732;SDS011;7457;50.960;6.830;2023-02-28T07:13:03;4.15;;;3.75;;
14732;SDS011;7457;50.960;6.830;2023-02-28T07:15:29;4.38;;;3.58;;
14732;SDS011;7457;50.960;6.830;2023-02-28T07:17:55;4.43;;;4.07;;
14732;SDS011;7457;50.960;6.830;2023-02-28T07:20:21;4.20;;;3.70;;
14732;SDS011;7457;50.960;6.830;2023-02-28T07:22:48;3.83;;;3.33;;
14732;SDS011;7457;50.960;6.830;2023-02-28T07:25:20;3.60;;;3.03;;
14732;SDS011;7457;50.960;6.830;2023-02-28T07:27:50;3.28;;;2.97;;
14732;SDS011;7457;50.960;6.830;2023-02-28T07:30:15;2.88;;;2.50;;
14732;SDS011;7457;50.960;6.830;2023-02-28T07:32:41;3.13;;;2.42;;
14732;SDS011;7457;50.960;6.830;2023-02-28T07:35:07;3.00;;;2.70;;
14732;SDS011;7457;50.960;6.830;2023-02-28T07:37:33;3.08;;;2.30;;
14732;SDS011;7457;50.960;6.830;2023-02-28T07:40:05;3.28;;;2.67;;
14732;SDS011;7457;50.960;6.830;2023-02-28T07:42:36;2.42;;;2.28;;
14732;SDS011;7457;50.960;6.830;2023-02-28T07:45:03;2.67;;;2.47;;
14732;SDS011;7457;50.960;6.830;2023-02-28T07:47:29;2.47;;;2.28;;
14732;SDS011;7457;50.960;6.830;2023-02-28T07:49:55;2.83;;;2.53;;
14732;SDS011;7457;50.960;6.830;2023-02-28T07:52:21;3.13;;;2.85;;
14732;SDS011;7457;50.960;6.830;2023-02-28T07:54:48;3.28;;;2.60;;
14732;SDS011;7457;50.960;6.830;2023-02-28T07:57:17;4.35;;;2.60;;
14732;SDS011;7457;50.960;6.830;2023-02-28T07:59:43;2.10;;;1.92;;
14732;SDS011;7457;50.960;6.830;2023-02-28T08:02:15;3.00;;;2.40;;
14732;SDS011;7457;50.960;6.830;2023-02-28T08:04:42;2.60;;;2.40;;
14732;SDS011;7457;50.960;6.830;2023-02-28T08:07:08;3.28;;;2.30;;
14732;SDS011;7457;50.960;6.830;2023-02-28T08:09:38;2.42;;;2.22;;
14732;SDS011;7457;50.960;6.830;2023-02-28T08:12:04;3.05;;;2.17;;
14732;SDS011;7457;50.960;6.830;2023-02-28T08:14:30;3.78;;;2.72;;
14732;SDS011;7457;50.960;6.830;2023-02-28T08:16:55;2.65;;;2.45;;
14732;SDS011;7457;50.960;6.830;2023-02-28T08:19:21;2.60;;;2.30;;
14732;SDS011;7457;50.960;6.830;2023-02-28T08:21:47;2.97;;;2.30;;
14732;SDS011;7457;50.960;6.830;2023-02-28T08:24:12;3.45;;;2.65;;
14732;SDS011;7457;50.960;6.830;2023-02-28T08:26:38;2.55;;;2.35;;
14732;SDS011;7457;50.960;6.830;2023-02-28T08:29:03;2.70;;;2.10;;
14732;SDS011;7457;50.960;6.830;2023-02-28T08:31:29;2.65;;;2.33;;
14732;SDS011;7457;50.960;6.830;2023-02-28T08:33:54;2.88;;;2.30;;
14732;SDS011;7457;50.960;6.830;2023-02-28T08:36:23;2.47;;;2.28;;
14732;SDS011;7457;50.960;6.830;2023-02-28T08:38:49;2.40;;;2.20;;
14732;SDS011;7457;50.960;6.830;2023-02-28T08:41:15;2.20;;;2.00;;
14732;SDS011;7457;50.960;6.830;2023-02-28T08:43:41;3.20;;;2.17;;
14732;SDS011;7457;50.960;6.830;2023-02-28T08:46:06;2.60;;;2.40;;
14732;SDS011;7457;50.960;6.830;2023-02-28T08:48:33;2.03;;;1.77;;
14732;SDS011;7457;50.960;6.830;2023-02-28T08:51:04;2.58;;;2.38;;
14732;SDS011;7457;50.960;6.830;2023-02-28T08:53:34;3.47;;;2.30;;
14732;SDS011;7457;50.960;6.830;2023-02-28T08:56:08;2.47;;;2.10;;
14732;SDS011;7457;50.960;6.830;2023-02-28T08:58:35;2.05;;;1.85;;
14732;SDS011;7457;50.960;6.830;2023-02-28T09:01:23;2.30;;;2.10;;
14732;SDS011;7457;50.960;6.830;2023-02-28T09:03:49;2.08;;;1.85;;
14732;SDS011;7457;50.960;6.830;2023-02-28T09:06:16;2.10;;;1.98;;
14732;SDS011;7457;50.960;6.830;2023-02-28T09:08:43;2.58;;;2.10;;
14732;SDS011;7457;50.960;6.830;2023-02-28T09:11:09;2.10;;;1.77;;
14732;SDS011;7457;50.960;6.830;2023-02-28T09:13:35;1.80;;;1.70;;
14732;SDS011;7457;50.960;6.830;2023-02-28T09:16:01;2.05;;;1.52;;
14732;SDS011;7457;50.960;6.830;2023-02-28T09:18:29;2.28;;;2.08;;
14732;SDS011;7457;50.960;6.830;2023-02-28T09:20:55;2.00;;;1.80;;
14732;SDS011;7457;50.960;6.830;2023-02-28T09:23:21;2.30;;;2.10;;
14732;SDS011;7457;50.960;6.830;2023-02-28T09:25:49;3.08;;;2.28;;
14732;SDS011;7457;50.960;6.830;2023-02-28T09:28:16;2.15;;;1.90;;
14732;SDS011;7457;50.960;6.830;2023-02-28T09:30:46;4.68;;;2.35;;
14732;SDS011;7457;50.960;6.830;2023-02-28T09:33:14;1.80;;;1.70;;
14732;SDS011;7457;50.960;6.830;2023-02-28T09:35:40;2.05;;;1.95;;
14732;SDS011;7457;50.960;6.830;2023-02-28T09:38:06;3.45;;;2.17;;
14732;SDS011;7457;50.960;6.830;2023-02-28T09:40:34;2.40;;;2.13;;
14732;SDS011;7457;50.960;6.830;2023-02-28T09:43:02;2.17;;;1.98;;
14732;SDS011;7457;50.960;6.830;2023-02-28T09:45:32;2.08;;;1.83;;
14732;SDS011;7457;50.960;6.830;2023-02-28T09:48:02;1.23;;;1.20;;
14732;SDS011;7457;50.960;6.830;2023-02-28T09:50:41;2.35;;;2.25;;
14732;SDS011;7457;50.960;6.830;2023-02-28T09:53:27;2.97;;;2.03;;
14732;SDS011;7457;50.960;6.830;2023-02-28T09:55:59;2.03;;;1.92;;
14732;SDS011;7457;50.960;6.830;2023-02-28T09:58:29;1.70;;;1.60;;
14732;SDS011;7457;50.960;6.830;2023-02-28T10:01:12;1.80;;;1.70;;
14732;SDS011;7457;50.960;6.830;2023-02-28T10:06:33;2.20;;;2.00;;
14732;SDS011;7457;50.960;6.830;2023-02-28T10:09:29;2.00;;;1.80;;
14732;SDS011;7457;50.960;6.830;2023-02-28T10:11:58;2.30;;;2.10;;
14732;SDS011;7457;50.960;6.830;2023-02-28T10:14:29;2.33;;;1.90;;
14732;SDS011;7457;50.960;6.830;2023-02-28T10:16:58;3.65;;;1.85;;
14732;SDS011;7457;50.960;6.830;2023-02-28T10:22:14;2.22;;;2.05;;
14732;SDS011;7457;50.960;6.830;2023-02-28T10:24:50;2.25;;;2.05;;
14732;SDS011;7457;50.960;6.830;2023-02-28T10:27:22;2.65;;;1.80;;
14732;SDS011;7457;50.960;6.830;2023-02-28T10:29:49;2.35;;;1.98;;
14732;SDS011;7457;50.960;6.830;2023-02-28T10:32:17;2.25;;;1.70;;
14732;SDS011;7457;50.960;6.830;2023-02-28T10:34:50;3.08;;;1.95;;
14732;SDS011;7457;50.960;6.830;2023-02-28T10:37:25;1.95;;;1.75;;
14732;SDS011;7457;50.960;6.830;2023-02-28T10:39:51;2.17;;;1.80;;
14732;SDS011;7457;50.960;6.830;2023-02-28T10:42:27;1.58;;;1.48;;
14732;SDS011;7457;50.960;6.830;2023-02-28T10:45:16;1.98;;;1.50;;
14732;SDS011;7457;50.960;6.830;2023-02-28T10:55:35;1.83;;;1.52;;
14732;SDS011;7457;50.960;6.830;2023-02-28T10:58:01;2.20;;;1.73;;
14732;SDS011;7457;50.960;6.830;2023-02-28T11:00:32;2.42;;;2.22;;
14732;SDS011;7457;50.960;6.830;2023-02-28T11:02:59;2.30;;;2.10;;
14732;SDS011;7457;50.960;6.830;2023-02-28T11:07:54;2.20;;;2.00;;
14732;SDS011;7457;50.960;6.830;2023-02-28T11:10:23;1.85;;;1.75;;
14732;SDS011;7457;50.960;6.830;2023-02-28T11:12:54;2.00;;;1.60;;
14732;SDS011;7457;50.960;6.830;2023-02-28T11:15:22;2.67;;;1.77;;
14732;SDS011;7457;50.960;6.830;2023-02-28T11:17:56;2.78;;;2.25;;
14732;SDS011;7457;50.960;6.830;2023-02-28T11:20:26;3.53;;;2.22;;
14732;SDS011;7457;50.960;6.830;2023-02-28T11:22:54;2.63;;;2.30;;
14732;SDS011;7457;50.960;6.830;2023-02-28T11:27:50;2.47;;;2.28;;
14732;SDS011;7457;50.960;6.830;2023-02-28T11:32:51;1.80;;;1.70;;
14732;SDS011;7457;50.960;6.830;2023-02-28T11:35:19;3.05;;;2.40;;
14732;SDS011;7457;50.960;6.830;2023-02-28T11:37:51;2.40;;;2.20;;
14732;SDS011;7457;50.960;6.830;2023-02-28T11:40:23;2.58;;;2.08;;
14732;SDS011;7457;50.960;6.830;2023-02-28T11:43:06;3.53;;;2.30;;
14732;SDS011;7457;50.960;6.830;2023-02-28T12:04:26;2.03;;;1.92;;
14732;SDS011;7457;50.960;6.830;2023-02-28T12:07:45;3.80;;;2.90;;
14732;SDS011;7457;50.960;6.830;2023-02-28T12:10:22;4.78;;;2.55;;
14732;SDS011;7457;50.960;6.830;2023-02-28T12:21:18;2.67;;;2.38;;
14732;SDS011;7457;50.960;6.830;2023-02-28T12:24:17;2.35;;;1.75;;
14732;SDS011;7457;50.960;6.830;2023-02-28T12:26:55;2.08;;;1.88;;
14732;SDS011;7457;50.960;6.830;2023-02-28T12:34:37;3.33;;;2.72;;
14732;SDS011;7457;50.960;6.830;2023-02-28T12:37:07;3.67;;;3.22;;
14732;SDS011;7457;50.960;6.830;2023-02-28T12:39:46;3.20;;;2.88;;
14732;SDS011;7457;50.960;6.830;2023-02-28T12:42:24;6.00;;;2.65;;
14732;SDS011;7457;50.960;6.830;2023-02-28T12:45:02;2.95;;;2.47;;
14732;SDS011;7457;50.960;6.830;2023-02-28T12:47:35;3.05;;;2.75;;
14732;SDS011;7457;50.960;6.830;2023-02-28T12:50:04;2.80;;;2.38;;
14732;SDS011;7457;50.960;6.830;2023-02-28T12:58:32;3.55;;;3.30;;
14732;SDS011;7457;50.960;6.830;2023-02-28T13:09:54;2.35;;;2.15;;
14732;SDS011;7457;50.960;6.830;2023-02-28T13:12:22;7.50;;;3.35;;
14732;SDS011;7457;50.960;6.830;2023-02-28T13:14:49;4.57;;;2.63;;
14732;SDS011;7457;50.960;6.830;2023-02-28T13:17:18;3.80;;;3.03;;
14732;SDS011;7457;50.960;6.830;2023-02-28T13:25:49;3.03;;;2.70;;
14732;SDS011;7457;50.960;6.830;2023-02-28T13:27:51;4.40;;;3.70;;
14732;SDS011;7457;50.960;6.830;2023-02-28T13:36:37;3.28;;;3.08;;
14732;SDS011;7457;50.960;6.830;2023-02-28T13:38:44;3.95;;;3.25;;
14732;SDS011;7457;50.960;6.830;2023-02-28T13:43:59;3.45;;;3.15;;
14732;SDS011;7457;50.960;6.830;2023-02-28T13:46:26;2.65;;;2.42;;
14732;SDS011;7457;50.960;6.830;2023-02-28T13:48:52;3.55;;;3.20;;
14732;SDS011;7457;50.960;6.830;2023-02-28T13:54:24;3.58;;;2.63;;
14732;SDS011;7457;50.960;6.830;2023-02-28T13:59:54;3.90;;;3.38;;
14732;SDS011;7457;50.960;6.830;2023-02-28T14:05:18;4.57;;;3.88;;
14732;SDS011;7457;50.960;6.830;2023-02-28T14:07:50;3.83;;;3.25;;
14732;SDS011;7457;50.960;6.830;2023-02-28T14:13:37;3.40;;;3.10;;
14732;SDS011;7457;50.960;6.830;2023-02-28T14:16:09;3.42;;;3.13;;
14732;SDS011;7457;50.960;6.830;2023-02-28T14:18:37;4.90;;;3.45;;
14732;SDS011;7457;50.960;6.830;2023-02-28T14:32:10;3.72;;;3.17;;
14732;SDS011;7457;50.960;6.830;2023-02-28T14:37:27;3.33;;;2.97;;
14732;SDS011;7457;50.960;6.830;2023-02-28T14:39:55;4.32;;;2.90;;
14732;SDS011;7457;50.960;6.830;2023-02-28T14:42:57;5.22;;;3.22;;
14732;SDS011;7457;50.960;6.830;2023-02-28T14:45:21;2.88;;;2.63;;
14732;SDS011;7457;50.960;6.830;2023-02-28T14:47:49;3.55;;;2.92;;
14732;SDS011;7457;50.960;6.830;2023-02-28T14:50:21;3.65;;;2.97;;
14732;SDS011;7457;50.960;6.830;2023-02-28T14:52:51;2.72;;;2.53;;
14732;SDS011;7457;50.960;6.830;2023-02-28T14:55:18;2.90;;;2.35;;
14732;SDS011;7457;50.960;6.830;2023-02-28T14:57:52;4.07;;;3.38;;
14732;SDS011;7457;50.960;6.830;2023-02-28T15:02:55;3.45;;;3.10;;
14732;SDS011;7457;50.960;6.830;2023-02-28T15:05:25;4.22;;;3.55;;
14732;SDS011;7457;50.960;6.830;2023-02-28T15:10:40;5.43;;;3.03;;
14732;SDS011;7457;50.960;6.830;2023-02-28T15:13:19;3.42;;;3.13;;
14732;SDS011;7457;50.960;6.830;2023-02-28T15:15:56;2.97;;;2.67;;
14732;SDS011;7457;50.960;6.830;2023-02-28T15:18:41;2.92;;;2.67;;
14732;SDS011;7457;50.960;6.830;2023-02-28T15:21:18;3.70;;;3.40;;
14732;SDS011;7457;50.960;6.830;2023-02-28T15:23:56;3.35;;;2.83;;
14732;SDS011;7457;50.960;6.830;2023-02-28T15:26:36;4.93;;;3.60;;
14732;SDS011;7457;50.960;6.830;2023-02-28T15:29:19;4.45;;;3.17;;
14732;SDS011;7457;50.960;6.830;2023-02-28T15:31:51;4.43;;;2.55;;
14732;SDS011;7457;50.960;6.830;2023-02-28T15:34:21;5.85;;;3.78;;
14732;SDS011;7457;50.960;6.830;2023-02-28T15:36:50;4.88;;;2.70;;
14732;SDS011;7457;50.960;6.830;2023-02-28T15:39:24;3.20;;;2.90;;
14732;SDS011;7457;50.960;6.830;2023-02-28T15:42:10;3.92;;;3.53;;
14732;SDS011;7457;50.960;6.830;2023-02-28T15:44:43;3.67;;;3.35;;
14732;SDS011;7457;50.960;6.830;2023-02-28T15:47:27;2.85;;;2.55;;
14732;SDS011;7457;50.960;6.830;2023-02-28T15:49:58;4.80;;;4.10;;
14732;SDS011;7457;50.960;6.830;2023-02-28T15:52:37;3.65;;;3.35;;
14732;SDS011;7457;50.960;6.830;2023-02-28T15:55:11;5.07;;;3.88;;
14732;SDS011;7457;50.960;6.830;2023-02-28T15:57:47;4.90;;;3.47;;
14732;SDS011;7457;50.960;6.830;2023-02-28T16:00:15;2.60;;;2.20;;
14732;SDS011;7457;50.960;6.830;2023-02-28T16:02:44;3.90;;;3.22;;
14732;SDS011;7457;50.960;6.830;2023-02-28T16:07:36;4.15;;;3.75;;
14732;SDS011;7457;50.960;6.830;2023-02-28T16:10:07;3.90;;;3.50;;
14732;SDS011;7457;50.960;6.830;2023-02-28T16:12:35;3.35;;;3.05;;
14732;SDS011;7457;50.960;6.830;2023-02-28T16:15:03;4.25;;;3.75;;
14732;SDS011;7457;50.960;6.830;2023-02-28T16:17:33;3.83;;;3.22;;
14732;SDS011;7457;50.960;6.830;2023-02-28T16:20:05;3.05;;;2.78;;
14732;SDS011;7457;50.960;6.830;2023-02-28T16:22:57;3.30;;;3.10;;
14732;SDS011;7457;50.960;6.830;2023-02-28T16:25:39;6.07;;;2.83;;
14732;SDS011;7457;50.960;6.830;2023-02-28T16:28:12;3.60;;;3.30;;
14732;SDS011;7457;50.960;6.830;2023-02-28T16:30:45;3.22;;;3.00;;
14732;SDS011;7457;50.960;6.830;2023-02-28T16:33:11;3.47;;;3.17;;
14732;SDS011;7457;50.960;6.830;2023-02-28T16:35:37;4.00;;;3.60;;
14732;SDS011;7457;50.960;6.830;2023-02-28T16:38:02;3.90;;;3.40;;
14732;SDS011;7457;50.960;6.830;2023-02-28T16:40:28;3.72;;;3.35;;
14732;SDS011;7457;50.960;6.830;2023-02-28T16:42:59;4.88;;;3.42;;
14732;SDS011;7457;50.960;6.830;2023-02-28T16:45:27;3.63;;;3.33;;
14732;SDS011;7457;50.960;6.830;2023-02-28T16:47:53;3.08;;;2.88;;
14732;SDS011;7457;50.960;6.830;2023-02-28T16:50:20;3.40;;;3.10;;
14732;SDS011;7457;50.960;6.830;2023-02-28T16:52:51;3.75;;;3.22;;
14732;SDS011;7457;50.960;6.830;2023-02-28T16:55:17;3.40;;;3.10;;
14732;SDS011;7457;50.960;6.830;2023-02-28T16:57:43;3.35;;;3.03;;
14732;SDS011;7457;50.960;6.830;2023-02-28T17:00:12;3.72;;;3.42;;
14732;SDS011;7457;50.960;6.830;2023-02-28T17:02:38;3.78;;;3.47;;
14732;SDS011;7457;50.960;6.830;2023-02-28T17:05:04;4.47;;;3.42;;
14732;SDS011;7457;50.960;6.830;2023-02-28T17:07:31;3.72;;;3.33;;
14732;SDS011;7457;50.960;6.830;2023-02-28T17:09:57;4.40;;;3.45;;
14732;SDS011;7457;50.960;6.830;2023-02-28T17:12:23;5.28;;;3.42;;
14732;SDS011;7457;50.960;6.830;2023-02-28T17:14:48;5.15;;;3.35;;
14732;SDS011;7457;50.960;6.830;2023-02-28T17:17:16;6.88;;;3.25;;
14732;SDS011;7457;50.960;6.830;2023-02-28T17:19:44;3.55;;;3.25;;
14732;SDS011;7457;50.960;6.830;2023-02-28T17:22:10;3.80;;;3.10;;
14732;SDS011;7457;50.960;6.830;2023-02-28T17:24:36;3.75;;;3.40;;
14732;SDS011;7457;50.960;6.830;2023-02-28T17:27:03;4.22;;;3.25;;
14732;SDS011;7457;50.960;6.830;2023-02-28T17:29:29;3.55;;;3.22;;
14732;SDS011;7457;50.960;6.830;2023-02-28T17:31:55;4.68;;;3.92;;
14732;SDS011;7457;50.960;6.830;2023-02-28T17:34:20;3.88;;;3.50;;
14732;SDS011;7457;50.960;6.830;2023-02-28T17:36:47;3.40;;;3.10;;
14732;SDS011;7457;50.960;6.830;2023-02-28T17:39:14;3.55;;;3.25;;
14732;SDS011;7457;50.960;6.830;2023-02-28T17:41:48;3.72;;;3.42;;
14732;SDS011;7457;50.960;6.830;2023-02-28T17:44:17;5.57;;;4.20;;
14732;SDS011;7457;50.960;6.830;2023-02-28T17:46:44;6.80;;;3.90;;